Time;durP1;ratioP1;P1;durP2;ratioP2;P2;SDS_P1;SDS_P2;PMS_P1;PMS_P2;Temp;Humidity;BMP_temperature;BMP_pressure;BME280_temperature;BME280_humidity;BME280_pressure;Samples;Min_cycle;Max_cycle;Signal;HPM_P1;HPM_P2
2021/09/27 00:00:26;;;;;;;21.10;12.70;;;;;;;14.14;100.00;96962.34;5033302;28;20041;-64
2021/09/27 00:03:14;;;;;;;18.77;11.27;;;;;;;14.20;100.00;96959.25;5020752;28;20129;-62
2021/09/27 00:06:00;;;;;;;20.33;13.00;;;;;;;14.21;100.00;96960.84;5037403;28;20047;-63
2021/09/27 00:08:46;;;;;;;23.52;11.90;;;;;;;14.10;100.00;96964.31;5037876;28;20049;-65
2021/09/27 00:11:32;;;;;;;22.95;12.07;;;;;;;14.01;100.00;96958.34;5014980;28;20041;-65
2021/09/27 00:14:18;;;;;;;21.10;12.40;;;;;;;13.96;100.00;96961.44;5013894;28;20056;-64
2021/09/27 00:17:07;;;;;;;23.13;12.73;;;;;;;13.95;100.00;96973.63;5031857;28;20044;-62
2021/09/27 00:19:52;;;;;;;20.97;12.37;;;;;;;13.97;100.00;96965.78;5055046;28;20119;-63
2021/09/27 00:22:38;;;;;;;25.85;13.70;;;;;;;14.00;100.00;96975.25;5046100;28;20345;-65
2021/09/27 00:25:26;;;;;;;25.33;12.27;;;;;;;14.01;100.00;96966.59;5036643;28;20278;-64
2021/09/27 00:28:13;;;;;;;26.23;13.55;;;;;;;14.01;100.00;96961.09;5036572;28;20497;-63
2021/09/27 00:30:58;;;;;;;28.17;14.50;;;;;;;14.00;100.00;96967.00;5040581;28;20049;-62
2021/09/27 00:33:45;;;;;;;30.08;14.00;;;;;;;14.01;100.00;96966.59;5035067;28;20145;-63
2021/09/27 00:36:30;;;;;;;25.92;12.75;;;;;;;14.02;100.00;96953.63;5025829;28;20049;-65
2021/09/27 00:39:17;;;;;;;22.58;12.52;;;;;;;14.02;100.00;96953.63;5034197;28;20044;-66
2021/09/27 00:42:03;;;;;;;24.70;13.02;;;;;;;13.99;100.00;96948.88;5035348;28;20041;-61
2021/09/27 00:44:48;;;;;;;24.05;12.95;;;;;;;13.86;100.00;96951.94;5038365;28;20045;-62
2021/09/27 00:47:34;;;;;;;22.42;13.15;;;;;;;13.69;100.00;96942.38;5055742;28;20076;-63
2021/09/27 00:50:24;;;;;;;22.27;12.45;;;;;;;13.69;100.00;96947.09;5038609;28;20397;-64
2021/09/27 00:53:26;;;;;;;23.33;11.27;;;;;;;13.77;100.00;96943.22;5032982;28;20037;-66
2021/09/27 00:56:15;;;;;;;25.48;13.50;;;;;;;13.75;100.00;96940.06;5043296;28;20085;-66
2021/09/27 00:59:01;;;;;;;25.17;12.93;;;;;;;13.70;100.00;96946.72;5039930;28;20471;-67
2021/09/27 01:01:47;;;;;;;20.48;11.88;;;;;;;13.66;100.00;96943.13;5036136;28;20393;-66
2021/09/27 01:04:33;;;;;;;21.13;12.27;;;;;;;13.68;100.00;96934.50;5034700;28;20049;-66
2021/09/27 01:07:29;;;;;;;23.10;11.55;;;;;;;13.60;100.00;96935.63;5026203;28;20041;-65
2021/09/27 01:10:24;;;;;;;20.90;12.40;;;;;;;13.50;100.00;96945.34;5033095;28;20072;-65
2021/09/27 01:13:45;;;;;;;19.67;11.57;;;;;;;13.49;100.00;96947.31;5031159;28;20409;-65
2021/09/27 01:16:37;;;;;;;22.25;11.93;;;;;;;13.55;100.00;96940.28;5033013;28;20076;-65
2021/09/27 01:19:45;;;;;;;20.83;11.77;;;;;;;13.55;100.00;96943.03;5034003;28;20552;-64
2021/09/27 01:22:52;;;;;;;20.75;11.25;;;;;;;13.53;100.00;96942.63;5037475;28;20037;-65
2021/09/27 01:26:03;;;;;;;17.38;10.40;;;;;;;13.53;100.00;96930.84;5032812;28;20453;-66
2021/09/27 01:29:36;;;;;;;21.92;11.45;;;;;;;13.53;100.00;96944.59;5034176;28;20040;-66
2021/09/27 01:32:48;;;;;;;16.92;10.25;;;;;;;13.61;100.00;96937.19;5011325;28;20760;-67
2021/09/27 01:35:52;;;;;;;17.75;10.00;;;;;;;13.69;100.00;96936.88;5017287;28;20080;-65
2021/09/27 01:39:05;;;;;;;22.00;10.73;;;;;;;13.75;100.00;96929.81;5022822;28;20055;-65
2021/09/27 01:42:02;;;;;;;15.98;9.57;;;;;;;13.58;100.00;96923.03;5000503;28;20479;-63
2021/09/27 01:45:02;;;;;;;14.93;9.32;;;;;;;13.45;100.00;96931.94;5035203;28;20040;-61
2021/09/27 01:47:55;;;;;;;14.15;7.95;;;;;;;13.41;100.00;96922.88;5036117;28;20041;-64
2021/09/27 01:50:53;;;;;;;14.40;9.23;;;;;;;13.43;100.00;96923.28;5036164;28;20078;-62
2021/09/27 01:54:06;;;;;;;13.45;7.97;;;;;;;13.56;100.00;96911.59;5036759;28;20060;-62
2021/09/27 01:57:26;;;;;;;13.02;8.10;;;;;;;13.54;100.00;96913.94;5047484;28;20074;-63
2021/09/27 02:00:17;;;;;;;12.20;7.95;;;;;;;13.39;100.00;96913.03;5030251;28;20144;-62
2021/09/27 02:03:18;;;;;;;13.95;7.93;;;;;;;13.35;100.00;96911.44;5032364;28;20032;-61
2021/09/27 02:06:29;;;;;;;11.55;7.25;;;;;;;13.18;100.00;96905.34;5033906;28;20033;-61
2021/09/27 02:09:47;;;;;;;15.65;9.80;;;;;;;13.06;100.00;96907.59;5032985;28;20045;-65
2021/09/27 02:12:45;;;;;;;21.48;10.98;;;;;;;12.95;100.00;96904.75;5036630;28;20056;-64
2021/09/27 02:15:37;;;;;;;26.80;13.02;;;;;;;12.95;100.00;96910.22;5034384;28;20048;-62
2021/09/27 02:18:31;;;;;;;24.38;11.63;;;;;;;12.96;100.00;96909.88;5030737;28;20518;-63
2021/09/27 02:21:23;;;;;;;17.05;9.48;;;;;;;13.09;100.00;96913.13;5028883;28;20389;-62
2021/09/27 02:24:26;;;;;;;15.13;9.48;;;;;;;13.17;100.00;96909.25;5030422;28;20052;-64
2021/09/27 02:27:12;;;;;;;17.17;9.95;;;;;;;13.19;100.00;96908.88;5032427;28;20144;-63
2021/09/27 02:29:58;;;;;;;15.45;9.45;;;;;;;13.25;100.00;96912.88;5036401;28;20040;-64
2021/09/27 02:32:52;;;;;;;13.52;8.70;;;;;;;13.32;100.00;96917.69;5034387;28;20085;-64
2021/09/27 02:35:44;;;;;;;16.92;10.13;;;;;;;13.17;100.00;96912.00;5035541;28;20093;-66
2021/09/27 02:38:42;;;;;;;19.83;10.85;;;;;;;13.01;100.00;96911.47;5036270;28;20052;-62
2021/09/27 02:41:30;;;;;;;16.75;10.18;;;;;;;12.97;100.00;96910.66;5032299;28;20048;-63
2021/09/27 02:44:16;;;;;;;16.77;9.85;;;;;;;13.04;100.00;96913.47;5033067;28;20045;-64
2021/09/27 02:47:06;;;;;;;22.70;9.95;;;;;;;13.15;100.00;96911.59;5037922;28;20048;-64
2021/09/27 02:49:56;;;;;;;16.02;8.55;;;;;;;13.20;100.00;96910.47;5036310;28;20071;-63
2021/09/27 02:52:42;;;;;;;14.35;9.23;;;;;;;13.21;100.00;96923.03;5035716;28;20136;-63
2021/09/27 02:56:10;;;;;;;14.00;8.57;;;;;;;13.24;100.00;96914.06;5032277;28;20045;-63
2021/09/27 02:58:58;;;;;;;15.27;8.32;;;;;;;13.35;100.00;96914.19;5034632;28;20040;-63
2021/09/27 03:02:06;;;;;;;14.00;7.93;;;;;;;13.41;100.00;96917.38;5037052;28;20441;-63
2021/09/27 03:05:29;;;;;;;13.88;8.23;;;;;;;13.35;100.00;96911.44;5037738;28;20037;-62
2021/09/27 03:08:23;;;;;;;13.68;8.68;;;;;;;13.14;100.00;96911.97;5031485;28;20052;-63
2021/09/27 03:11:34;;;;;;;17.27;8.52;;;;;;;12.94;100.00;96914.13;5031759;28;20062;-63
2021/09/27 03:14:41;;;;;;;12.45;7.45;;;;;;;12.93;100.00;96909.81;5029033;28;20045;-62
2021/09/27 03:17:39;;;;;;;12.63;7.97;;;;;;;12.93;100.00;96907.06;5033537;28;20132;-62
2021/09/27 03:20:37;;;;;;;12.05;7.32;;;;;;;13.04;100.00;96907.19;5033865;28;20559;-62
2021/09/27 03:23:40;;;;;;;11.77;7.25;;;;;;;13.19;100.00;96909.66;5029206;28;20706;-62
2021/09/27 03:26:38;;;;;;;11.50;7.47;;;;;;;13.25;100.00;96914.84;5030254;28;20060;-62
2021/09/27 03:29:51;;;;;;;11.45;7.43;;;;;;;13.26;100.00;96919.19;5030811;28;20951;-63
2021/09/27 03:33:06;;;;;;;12.48;7.13;;;;;;;13.24;100.00;96918.75;5026176;28;20939;-62
2021/09/27 03:36:07;;;;;;;14.90;6.95;;;;;;;13.24;100.00;96918.75;5026314;28;20176;-66
2021/09/27 03:39:05;;;;;;;10.43;6.82;;;;;;;13.35;100.00;96908.69;5030972;28;20571;-63
2021/09/27 03:42:00;;;;;;;12.23;7.40;;;;;;;13.44;100.00;96919.38;5030748;28;20040;-65
2021/09/27 03:45:09;;;;;;;9.73;6.50;;;;;;;13.50;100.00;96917.84;5029297;28;20036;-64
2021/09/27 03:48:51;;;;;;;13.23;6.93;;;;;;;13.51;100.00;96916.69;5031184;28;20156;-64
2021/09/27 03:52:09;;;;;;;14.23;6.50;;;;;;;13.55;100.00;96926.53;5016104;28;20068;-65
2021/09/27 03:55:22;;;;;;;10.68;6.88;;;;;;;13.48;100.00;96915.47;5032845;28;20045;-64
2021/09/27 03:58:17;;;;;;;10.60;6.65;;;;;;;13.44;100.00;96914.66;5010514;28;20037;-65
2021/09/27 04:01:36;;;;;;;9.20;6.20;;;;;;;13.49;100.00;96916.28;5013467;28;20038;-60
2021/09/27 04:04:34;;;;;;;11.35;6.13;;;;;;;13.55;100.00;96915.50;5011516;28;20048;-63
2021/09/27 04:07:28;;;;;;;9.63;6.20;;;;;;;13.55;100.00;96920.25;5021887;28;20061;-63
2021/09/27 04:10:36;;;;;;;11.85;6.35;;;;;;;13.56;100.00;96911.59;5037439;28;20048;-63
2021/09/27 04:13:31;;;;;;;10.80;6.30;;;;;;;13.60;100.00;96916.34;5031110;28;20753;-63
2021/09/27 04:16:31;;;;;;;8.82;6.47;;;;;;;13.54;100.00;96913.94;5030596;28;20060;-65
2021/09/27 04:19:26;;;;;;;9.90;6.03;;;;;;;13.53;100.00;96917.88;5024839;23;20045;-59
2021/09/27 04:22:21;;;;;;;12.65;7.18;;;;;;;13.45;100.00;96912.69;5011680;28;20132;-60
2021/09/27 04:25:15;;;;;;;12.90;6.53;;;;;;;13.50;100.00;96913.09;5010927;28;20570;-58
2021/09/27 04:28:18;;;;;;;10.65;6.68;;;;;;;13.49;100.00;96914.31;5017676;28;20037;-60
2021/09/27 04:31:15;;;;;;;11.32;6.97;;;;;;;13.31;100.00;96911.41;5015224;28;20045;-62
2021/09/27 04:34:19;;;;;;;11.68;7.05;;;;;;;13.19;100.00;96906.91;5033007;28;20550;-58
2021/09/27 04:37:05;;;;;;;9.85;6.68;;;;;;;13.22;100.00;96902.63;5032833;28;20039;-62
2021/09/27 04:39:51;;;;;;;10.45;6.55;;;;;;;13.30;100.00;96903.50;5039222;28;20049;-60
2021/09/27 04:43:13;;;;;;;10.45;6.65;;;;;;;13.42;100.00;96908.72;5036963;28;20045;-58
2021/09/27 04:46:40;;;;;;;10.68;7.07;;;;;;;13.18;100.00;96899.03;5037653;28;20501;-59
2021/09/27 04:50:00;;;;;;;12.43;6.65;;;;;;;13.28;100.00;96900.34;5036737;28;20140;-62
2021/09/27 04:53:13;;;;;;;12.45;6.63;;;;;;;13.39;100.00;96902.00;5039546;28;20049;-61
2021/09/27 04:56:19;;;;;;;10.95;6.47;;;;;;;13.48;100.00;96898.94;5046526;28;20041;-58
2021/09/27 04:59:23;;;;;;;12.27;6.75;;;;;;;13.47;100.00;96900.13;5044812;28;20496;-62
2021/09/27 05:02:40;;;;;;;11.10;6.88;;;;;;;13.43;100.00;96901.25;5042548;28;20041;-61
2021/09/27 05:05:44;;;;;;;10.50;6.97;;;;;;;13.35;100.00;96905.91;5029018;28;20045;-61
2021/09/27 05:08:54;;;;;;;11.65;7.22;;;;;;;13.45;100.00;96910.72;5045943;28;20055;-60
2021/09/27 05:11:56;;;;;;;15.45;7.40;;;;;;;13.53;100.00;96901.34;5026002;28;20045;-61
2021/09/27 05:15:10;;;;;;;13.75;6.97;;;;;;;13.50;100.00;96898.56;5041361;28;20572;-59
2021/09/27 05:18:14;;;;;;;10.05;6.65;;;;;;;13.28;100.00;96897.56;5045582;28;20057;-59
2021/09/27 05:21:24;;;;;;;16.73;7.20;;;;;;;13.09;100.00;96906.81;5046371;28;20079;-61
2021/09/27 05:24:40;;;;;;;14.20;7.47;;;;;;;12.92;100.00;96913.72;5025366;28;20493;-59
2021/09/27 05:27:41;;;;;;;13.98;8.20;;;;;;;12.83;100.00;96916.78;5041715;28;20048;-61
2021/09/27 05:31:20;;;;;;;11.57;7.82;;;;;;;12.82;100.00;96924.25;5052093;28;20587;-61
2021/09/27 05:34:57;;;;;;;15.13;7.75;;;;;;;13.03;100.00;96920.13;4976397;28;20073;-61
2021/09/27 05:37:57;;;;;;;12.43;7.47;;;;;;;13.26;100.00;96916.44;4922807;28;20578;-61
2021/09/27 05:41:14;;;;;;;9.13;6.45;;;;;;;13.54;100.00;96916.69;4954738;28;20608;-60
2021/09/27 05:44:06;;;;;;;12.43;8.07;;;;;;;13.15;100.00;96925.34;5047662;28;20053;-59
2021/09/27 05:46:57;;;;;;;12.70;7.30;;;;;;;12.90;100.00;96916.06;5042250;28;20094;-59
2021/09/27 05:50:06;;;;;;;12.77;7.65;;;;;;;12.45;100.00;96912.41;5046440;28;20132;-62
2021/09/27 05:53:20;;;;;;;23.67;10.40;;;;;;;12.35;100.00;96917.41;5040096;28;20537;-62
2021/09/27 05:56:16;;;;;;;16.10;10.23;;;;;;;12.45;100.00;96918.69;5031915;28;20047;-60
2021/09/27 05:59:15;;;;;;;17.98;9.70;;;;;;;12.61;100.00;96919.28;5037721;28;20067;-62
2021/09/27 06:02:16;;;;;;;22.83;10.23;;;;;;;12.95;100.00;96912.97;5037609;28;20098;-62
2021/09/27 06:05:10;;;;;;;16.65;8.77;;;;;;;13.81;100.00;96922.03;5045016;28;20664;-61
2021/09/27 06:08:14;;;;;;;11.57;7.43;;;;;;;14.83;100.00;96926.91;5050052;28;20056;-59
2021/09/27 06:11:15;;;;;;;12.70;7.78;;;;;;;15.17;100.00;96924.63;5057262;28;20052;-60
2021/09/27 06:14:01;;;;;;;13.32;6.50;;;;;;;15.19;100.00;96921.47;5048969;28;20044;-60
2021/09/27 06:17:06;;;;;;;9.43;6.32;;;;;;;15.16;100.00;96925.00;5044968;28;20041;-57
2021/09/27 06:20:06;;;;;;;14.35;6.38;;;;;;;15.12;100.00;96918.69;5042747;28;20037;-60
2021/09/27 06:23:24;;;;;;;19.27;6.57;;;;;;;14.86;100.00;96923.38;5055390;28;20124;-60
2021/09/27 06:26:13;;;;;;;12.85;6.95;;;;;;;14.24;100.00;96919.53;5039457;28;20034;-62
2021/09/27 06:29:06;;;;;;;16.23;8.60;;;;;;;13.83;100.00;96916.09;5024204;28;20149;-60
2021/09/27 06:32:09;;;;;;;14.73;7.70;;;;;;;13.78;100.00;96925.53;5037731;28;20041;-60
2021/09/27 06:35:01;;;;;;;11.20;6.97;;;;;;;14.08;100.00;96916.28;5043224;28;20059;-59
2021/09/27 06:37:47;;;;;;;12.35;7.40;;;;;;;14.54;100.00;96930.28;5043968;28;20298;-60
2021/09/27 06:40:38;;;;;;;11.43;7.22;;;;;;;14.95;100.00;96923.78;5033941;28;20041;-60
2021/09/27 06:43:26;;;;;;;17.27;7.78;;;;;;;15.27;100.00;96928.59;5037197;28;20128;-60
2021/09/27 06:46:13;;;;;;;9.95;6.85;;;;;;;15.59;100.00;96920.34;5030465;28;20077;-61
2021/09/27 06:48:59;;;;;;;17.17;8.23;;;;;;;15.13;100.00;96918.31;5043872;28;20660;-59
2021/09/27 06:51:45;;;;;;;13.10;8.50;;;;;;;14.66;100.00;96918.19;5042980;28;20048;-60
2021/09/27 06:54:31;;;;;;;14.85;8.60;;;;;;;14.33;100.00;96910.91;5034972;28;20103;-59
2021/09/27 06:57:16;;;;;;;16.35;9.45;;;;;;;14.54;100.00;96922.03;5031783;28;20037;-61
2021/09/27 07:00:04;;;;;;;14.73;8.93;;;;;;;14.64;100.00;96916.97;5036731;28;20055;-61
2021/09/27 07:02:49;;;;;;;15.60;9.55;;;;;;;14.74;100.00;96920.97;5044780;28;20110;-57
2021/09/27 07:05:35;;;;;;;14.32;8.73;;;;;;;15.17;100.00;96921.84;5021666;28;20044;-59
2021/09/27 07:08:21;;;;;;;14.07;9.10;;;;;;;15.65;100.00;96918.75;5033960;28;20137;-59
2021/09/27 07:11:07;;;;;;;13.80;8.20;;;;;;;15.81;100.00;96918.38;5038316;28;20052;-61
2021/09/27 07:13:52;;;;;;;12.02;7.75;;;;;;;15.96;100.00;96923.88;5022378;28;20041;-61
2021/09/27 07:16:38;;;;;;;14.30;9.23;;;;;;;15.89;100.00;96923.91;5045898;28;20040;-61
2021/09/27 07:19:24;;;;;;;15.45;9.35;;;;;;;16.19;100.00;96918.72;5036886;28;20778;-62
2021/09/27 07:22:10;;;;;;;14.15;8.80;;;;;;;16.08;100.00;96912.44;5030874;28;20474;-62
2021/09/27 07:24:55;;;;;;;15.35;9.13;;;;;;;15.71;100.00;96916.38;5027458;28;20628;-61
2021/09/27 07:27:41;;;;;;;15.70;9.45;;;;;;;16.24;100.00;96917.50;5044951;28;20052;-61
2021/09/27 07:30:29;;;;;;;13.40;9.55;;;;;;;16.20;100.00;96916.72;5040765;28;20497;-60
2021/09/27 07:33:15;;;;;;;13.40;7.90;;;;;;;16.35;100.00;96909.19;5040256;28;20102;-59
2021/09/27 07:36:03;;;;;;;14.20;8.07;;;;;;;16.77;100.00;96911.00;5037959;28;20071;-60
2021/09/27 07:38:49;;;;;;;10.10;7.03;;;;;;;17.22;98.77;96907.63;5042666;28;20045;-60
2021/09/27 07:41:35;;;;;;;12.57;8.75;;;;;;;17.02;99.37;96912.88;5033169;28;20049;-61
2021/09/27 07:44:20;;;;;;;11.93;8.40;;;;;;;17.05;99.96;96911.28;5043532;28;20036;-60
2021/09/27 07:47:06;;;;;;;11.25;6.88;;;;;;;17.48;100.00;96911.78;5051531;28;20039;-63
2021/09/27 07:49:52;;;;;;;12.30;8.35;;;;;;;17.27;98.68;96917.47;5055686;28;20044;-60
2021/09/27 07:52:38;;;;;;;14.45;9.15;;;;;;;16.66;100.00;96923.31;5045837;28;20053;-60
2021/09/27 07:55:24;;;;;;;17.27;9.50;;;;;;;16.62;100.00;96920.56;5032834;28;20508;-58
2021/09/27 07:58:11;;;;;;;14.30;9.40;;;;;;;16.69;100.00;96911.44;5030164;28;20040;-60
2021/09/27 08:00:56;;;;;;;22.00;9.40;;;;;;;16.78;100.00;96909.81;5043783;28;20135;-60
2021/09/27 08:03:42;;;;;;;17.70;11.02;;;;;;;16.28;100.00;96900.91;5046202;28;20045;-59
2021/09/27 08:06:28;;;;;;;18.95;10.95;;;;;;;16.78;100.00;96903.47;5015612;28;20052;-60
2021/09/27 08:09:14;;;;;;;17.80;11.25;;;;;;;16.72;100.00;96908.66;5019469;28;20041;-61
2021/09/27 08:11:59;;;;;;;20.23;12.57;;;;;;;16.56;100.00;96909.09;5054050;28;20388;-60
2021/09/27 08:14:46;;;;;;;16.13;11.10;;;;;;;17.20;100.00;96912.78;5042335;28;20069;-61
2021/09/27 08:17:31;;;;;;;18.20;10.30;;;;;;;17.82;96.92;96913.88;5048733;28;20048;-62
2021/09/27 08:20:23;;;;;;;17.13;11.00;;;;;;;17.74;94.96;96921.47;5052877;28;20048;-61
2021/09/27 08:23:10;;;;;;;17.95;10.82;;;;;;;17.27;97.27;96923.81;5052707;28;20058;-62
2021/09/27 08:25:56;;;;;;;18.35;10.68;;;;;;;17.67;95.53;96918.75;5056117;28;20045;-62
2021/09/27 08:28:43;;;;;;;19.77;10.98;;;;;;;17.58;95.77;96918.44;5055677;28;20984;-64
2021/09/27 08:31:30;;;;;;;16.60;11.82;;;;;;;17.65;95.57;96918.38;5064904;28;20043;-62
2021/09/27 08:34:16;;;;;;;17.20;10.75;;;;;;;17.73;96.19;96916.34;5054377;28;20221;-62
2021/09/27 08:37:02;;;;;;;17.70;10.98;;;;;;;18.05;92.94;96918.84;5043515;28;20045;-62
2021/09/27 08:39:48;;;;;;;13.10;8.43;;;;;;;19.02;90.20;96912.19;5047054;28;20099;-60
2021/09/27 08:42:40;;;;;;;13.70;9.13;;;;;;;19.87;81.59;96914.09;5038467;28;20102;-60
2021/09/27 08:45:28;;;;;;;13.20;8.70;;;;;;;20.62;78.85;96909.19;5030937;28;20389;-60
2021/09/27 08:48:36;;;;;;;11.95;8.07;;;;;;;20.51;77.79;96909.38;5045641;28;20484;-60
2021/09/27 08:51:21;;;;;;;12.40;8.90;;;;;;;20.04;79.11;96926.94;5050926;28;20176;-60
2021/09/27 08:54:12;;;;;;;12.23;8.65;;;;;;;21.13;74.93;96936.75;5046059;28;20120;-61
2021/09/27 08:57:13;;;;;;;21.00;8.32;;;;;;;21.94;69.49;96922.13;5053066;28;20598;-60
2021/09/27 09:00:35;;;;;;;13.00;8.30;;;;;;;23.54;62.21;96927.69;5047092;28;20087;-61
2021/09/27 09:03:36;;;;;;;9.63;7.50;;;;;;;23.29;63.13;96924.44;5035476;28;20527;-60
2021/09/27 09:06:40;;;;;;;9.40;6.80;;;;;;;23.80;61.44;96923.66;5010672;28;21097;-61
2021/09/27 09:09:41;;;;;;;10.57;6.65;;;;;;;24.18;60.01;96922.81;5021163;28;20086;-59
2021/09/27 09:12:47;;;;;;;9.68;6.05;;;;;;;25.33;55.40;96926.28;5049047;28;20087;-60
2021/09/27 09:15:34;;;;;;;11.45;5.75;;;;;;;25.80;54.01;96928.00;5027568;28;20053;-59
2021/09/27 09:18:24;;;;;;;10.63;6.32;;;;;;;25.35;54.30;96929.41;5029703;28;20401;-60
2021/09/27 09:21:27;;;;;;;13.73;7.05;;;;;;;23.52;59.55;96928.13;5035574;28;20052;-57
2021/09/27 09:24:17;;;;;;;9.10;6.93;;;;;;;23.67;60.77;96934.03;5028220;28;20053;-62
2021/09/27 09:27:07;;;;;;;10.88;6.75;;;;;;;24.38;58.16;96925.31;5032164;28;20044;-62
2021/09/27 09:29:53;;;;;;;9.48;6.45;;;;;;;25.66;53.91;96926.59;5033286;28;20116;-61
2021/09/27 09:32:40;;;;;;;11.05;7.35;;;;;;;25.53;53.41;96925.91;5039935;28;20122;-62
2021/09/27 09:35:29;;;;;;;9.77;7.15;;;;;;;25.70;53.44;96929.25;5029951;28;20045;-59
2021/09/27 09:38:22;;;;;;;12.95;6.57;;;;;;;25.44;53.71;96928.66;5034019;28;20037;-59
2021/09/27 09:41:08;;;;;;;10.93;6.97;;;;;;;25.28;53.79;96924.06;5027402;28;20048;-60
2021/09/27 09:43:54;;;;;;;9.80;6.85;;;;;;;25.37;53.57;96924.91;5036051;28;20136;-59
2021/09/27 09:46:41;;;;;;;9.57;6.97;;;;;;;24.30;56.46;96923.22;5036752;28;20426;-60
2021/09/27 09:49:29;;;;;;;9.52;6.75;;;;;;;24.09;57.67;96924.72;5029283;28;20114;-63
2021/09/27 09:52:26;;;;;;;10.37;7.57;;;;;;;23.82;59.02;96928.78;5034602;28;20037;-62
2021/09/27 09:55:53;;;;;;;10.40;7.53;;;;;;;23.15;61.32;96922.06;5029062;28;20393;-62
2021/09/27 09:58:45;;;;;;;12.88;7.22;;;;;;;23.92;57.89;96924.09;5031949;28;20048;-59
2021/09/27 10:01:35;;;;;;;11.77;7.80;;;;;;;24.34;57.22;96915.47;5034339;28;20706;-60
2021/09/27 10:04:25;;;;;;;10.02;6.32;;;;;;;24.85;56.23;96918.06;5029900;28;20075;-61
2021/09/27 10:07:15;;;;;;;10.63;7.28;;;;;;;24.56;56.52;96924.72;5029181;28;20407;-59
2021/09/27 10:10:08;;;;;;;7.65;6.03;;;;;;;24.78;56.14;96916.31;5036180;28;20036;-61
2021/09/27 10:12:54;;;;;;;10.25;7.05;;;;;;;25.30;52.29;96918.78;5035816;28;20777;-60
2021/09/27 10:15:43;;;;;;;11.75;6.85;;;;;;;25.75;52.85;96909.78;5035319;28;20094;-61
2021/09/27 10:18:35;;;;;;;9.23;6.13;;;;;;;26.14;52.39;96915.03;5032095;28;20045;-64
2021/09/27 10:21:21;;;;;;;11.88;7.50;;;;;;;25.04;54.74;96910.53;5032634;28;20098;-64
2021/09/27 10:24:17;;;;;;;8.77;6.22;;;;;;;24.94;55.89;96909.72;5030220;28;20045;-63
2021/09/27 10:27:14;;;;;;;11.02;6.57;;;;;;;25.70;52.65;96904.78;5030587;28;20161;-60
2021/09/27 10:30:22;;;;;;;9.27;6.38;;;;;;;25.06;53.02;96916.47;5036473;28;20099;-62
2021/09/27 10:33:25;;;;;;;11.93;6.68;;;;;;;24.76;54.89;96910.38;5027414;28;20047;-63
2021/09/27 10:36:18;;;;;;;8.75;6.53;;;;;;;24.80;54.25;96916.63;5037221;28;20474;-62
2021/09/27 10:39:06;;;;;;;9.05;5.60;;;;;;;24.42;54.71;96920.34;5052677;28;20044;-60
2021/09/27 10:42:06;;;;;;;9.23;5.88;;;;;;;24.57;54.54;96914.28;5036804;28;20040;-64
2021/09/27 10:44:54;;;;;;;8.55;5.95;;;;;;;24.60;55.65;96908.56;5050959;28;20036;-63
2021/09/27 10:47:44;;;;;;;11.10;6.82;;;;;;;23.78;56.43;96914.91;5044060;28;20048;-64
2021/09/27 10:50:36;;;;;;;12.85;6.57;;;;;;;23.64;58.05;96920.94;5023503;28;20281;-62
2021/09/27 10:54:01;;;;;;;15.40;7.38;;;;;;;23.84;58.07;96910.34;5034054;28;22195;-62
2021/09/27 10:56:49;;;;;;;17.35;10.23;;;;;;;23.77;58.95;96912.53;5039063;28;20036;-63
2021/09/27 10:59:59;;;;;;;15.82;9.88;;;;;;;24.85;55.67;96908.84;5035709;28;20367;-62
2021/09/27 11:02:54;;;;;;;10.10;7.85;;;;;;;25.52;53.01;96902.69;5041104;28;20055;-62
2021/09/27 11:06:00;;;;;;;10.32;6.80;;;;;;;25.36;52.75;96906.53;5043618;28;20135;-62
2021/09/27 11:08:45;;;;;;;9.07;5.85;;;;;;;24.42;54.73;96894.38;5049809;28;20055;-62
2021/09/27 11:11:32;;;;;;;7.15;5.15;;;;;;;24.48;56.33;96895.34;5032746;28;20041;-60
2021/09/27 11:14:27;;;;;;;13.45;5.70;;;;;;;24.08;57.44;96893.16;5046198;28;20051;-63
2021/09/27 11:17:41;;;;;;;18.25;12.57;;;;;;;24.59;56.02;96892.19;5041447;28;20047;-61
2021/09/27 11:20:29;;;;;;;11.82;7.97;;;;;;;25.43;53.90;96890.69;5009515;28;20529;-62
2021/09/27 11:23:32;;;;;;;15.85;8.60;;;;;;;25.34;54.24;96894.22;5030015;28;20482;-60
2021/09/27 11:26:17;;;;;;;11.43;6.72;;;;;;;25.25;54.29;96896.97;5036482;28;20090;-61
2021/09/27 11:29:29;;;;;;;11.15;7.57;;;;;;;26.12;51.92;96884.59;5042664;28;20086;-59
2021/09/27 11:32:30;;;;;;;12.38;7.45;;;;;;;23.34;59.40;96877.63;5033601;28;20044;-61
2021/09/27 11:35:16;;;;;;;10.15;7.47;;;;;;;23.40;60.88;96884.19;5049985;28;20724;-63
2021/09/27 11:38:07;;;;;;;8.27;5.32;;;;;;;24.43;55.51;96870.75;5059922;28;20287;-59
2021/09/27 11:41:01;;;;;;;10.88;5.75;;;;;;;24.93;53.90;96879.34;5053555;28;20919;-61
2021/09/27 11:44:13;;;;;;;10.93;6.72;;;;;;;24.81;54.05;96872.56;5051370;28;20128;-63
2021/09/27 11:47:16;;;;;;;9.52;6.10;;;;;;;24.02;55.84;96873.38;5052440;28;20071;-62
2021/09/27 11:50:05;;;;;;;11.00;6.55;;;;;;;24.34;54.60;96876.28;5047206;28;20045;-60
2021/09/27 11:53:02;;;;;;;10.32;6.38;;;;;;;24.40;54.64;96863.28;5047040;28;20060;-64
2021/09/27 11:55:59;;;;;;;19.17;7.25;;;;;;;24.09;54.59;96863.94;5056953;28;20043;-62
2021/09/27 11:59:06;;;;;;;13.25;7.00;;;;;;;23.94;55.07;96857.28;5054340;28;20484;-61
2021/09/27 12:01:56;;;;;;;12.00;7.93;;;;;;;23.95;56.80;96856.03;5048281;28;20133;-60
2021/09/27 12:04:45;;;;;;;13.35;8.68;;;;;;;22.88;59.49;96850.59;5039709;28;20045;-61
2021/09/27 12:07:51;;;;;;;14.50;8.67;;;;;;;22.43;63.24;96848.72;5035505;28;20143;-61
2021/09/27 12:10:48;;;;;;;14.75;8.30;;;;;;;22.77;61.05;96843.78;5042209;28;20048;-58
2021/09/27 12:13:47;;;;;;;13.95;7.80;;;;;;;23.15;59.16;96849.44;5015106;28;20053;-62
2021/09/27 12:16:37;;;;;;;13.05;7.45;;;;;;;23.23;59.14;96850.00;5039061;28;20049;-63
2021/09/27 12:19:29;;;;;;;13.77;7.53;;;;;;;23.32;58.88;96847.31;5020206;28;20468;-62
2021/09/27 12:22:27;;;;;;;10.77;7.30;;;;;;;23.15;60.44;96851.44;5036209;28;20178;-61
2021/09/27 12:25:22;;;;;;;11.45;7.30;;;;;;;23.33;58.90;96843.28;5034400;28;20036;-61
2021/09/27 12:28:12;;;;;;;12.43;7.97;;;;;;;23.49;57.72;96856.34;5027570;28;20045;-63
2021/09/27 12:30:59;;;;;;;;;;;;;;;23.39;58.39;96855.47;5038628;28;20128;-61
2021/09/27 12:33:45;;;;;;;10.30;7.20;;;;;;;23.30;57.31;96849.78;5038696;28;19932;-61
2021/09/27 12:36:30;;;;;;;11.73;6.80;;;;;;;23.26;57.96;96852.69;5040874;28;20068;-63
2021/09/27 12:39:20;;;;;;;14.10;6.90;;;;;;;23.39;59.59;96852.69;5036948;28;20037;-63
2021/09/27 12:42:11;;;;;;;10.77;7.63;;;;;;;23.75;57.65;96851.50;5036881;28;20065;-62
2021/09/27 12:45:15;;;;;;;12.40;7.03;;;;;;;23.29;58.54;96845.41;5041694;28;20033;-62
2021/09/27 12:48:09;;;;;;;12.38;7.82;;;;;;;23.54;58.25;96853.00;5040726;28;20033;-62
2021/09/27 12:51:01;;;;;;;14.00;7.40;;;;;;;23.45;59.85;96856.47;5042585;28;20110;-62
2021/09/27 12:54:08;;;;;;;11.60;7.72;;;;;;;23.21;60.06;96864.41;5039531;28;20041;-63
2021/09/27 12:56:56;;;;;;;11.43;7.32;;;;;;;22.94;61.23;96864.81;5019890;28;20046;-62
2021/09/27 12:59:42;;;;;;;9.95;7.22;;;;;;;22.81;62.92;96866.81;5041762;28;20125;-60
2021/09/27 13:02:42;;;;;;;13.70;7.55;;;;;;;22.69;62.91;96871.16;5036146;28;20123;-62
2021/09/27 13:05:56;;;;;;;13.98;8.27;;;;;;;22.42;64.12;96866.72;5029157;28;20568;-64
2021/09/27 13:09:01;;;;;;;15.48;8.25;;;;;;;22.06;65.88;96858.53;5036898;28;20346;-62
2021/09/27 13:11:51;;;;;;;11.20;7.78;;;;;;;21.71;66.94;96872.91;5034609;28;20045;-63
2021/09/27 13:14:44;;;;;;;11.90;7.57;;;;;;;21.86;66.86;96875.34;5031268;28;20061;-63
2021/09/27 13:17:31;;;;;;;11.95;8.30;;;;;;;21.94;66.93;96871.94;5034856;28;20424;-63
2021/09/27 13:20:49;;;;;;;16.15;10.43;;;;;;;21.84;66.58;96866.66;5029663;28;20040;-63
2021/09/27 13:23:41;;;;;;;15.07;8.10;;;;;;;21.71;66.93;96855.44;5017054;28;20049;-63
2021/09/27 13:26:48;;;;;;;13.32;8.02;;;;;;;21.62;67.12;96853.25;5008674;28;20041;-60
2021/09/27 13:29:36;;;;;;;15.15;9.38;;;;;;;21.90;66.93;96862.91;5032815;28;20097;-63
2021/09/27 13:32:24;;;;;;;12.93;8.38;;;;;;;21.86;67.15;96864.19;5030971;28;20567;-62